createdAt,value
2022-11-21T00:00:00.419Z,23.0
2022-11-21T00:05:00.338Z,22.5
2022-11-21T00:10:00.390Z,22.5
2022-11-21T00:15:00.410Z,22.5
2022-11-21T00:20:00.427Z,22.5
2022-11-21T00:25:00.386Z,153.7
2022-11-21T00:30:00.392Z,157.5
2022-11-21T00:35:00.420Z,157.5
2022-11-21T00:40:00.455Z,157.5
2022-11-21T00:45:00.441Z,309.0
2022-11-21T00:50:00.485Z,330.2
2022-11-21T00:55:00.372Z,337.4
2022-11-21T01:00:00.369Z,337.5
2022-11-21T01:05:03.928Z,337.5
2022-11-21T01:10:01.430Z,359.1
2022-11-21T01:15:00.359Z,360.0
2022-11-21T01:20:00.378Z,0.0
2022-11-21T01:25:00.349Z,0.0
2022-11-21T01:30:00.381Z,0.0
2022-11-21T01:35:00.352Z,230.9
2022-11-21T01:40:00.437Z,225.0
2022-11-21T01:45:00.362Z,225.0
2022-11-21T01:50:00.376Z,225.0
2022-11-21T01:55:00.374Z,225.0
2022-11-21T02:00:00.444Z,280.6
2022-11-21T02:05:00.360Z,337.2
2022-11-21T02:10:00.402Z,337.5
2022-11-21T02:15:00.379Z,337.5
2022-11-21T02:20:00.392Z,337.5
2022-11-21T02:25:00.377Z,337.5
2022-11-21T02:30:00.389Z,356.5
2022-11-21T02:35:00.363Z,22.3
2022-11-21T02:40:00.441Z,37.5
2022-11-21T02:45:00.358Z,70.1
2022-11-21T02:50:00.350Z,67.5
2022-11-21T02:55:00.433Z,67.5
2022-11-21T03:00:00.395Z,67.5
2022-11-21T03:05:00.346Z,67.5
2022-11-21T03:10:00.362Z,33.7
2022-11-21T03:15:00.391Z,22.6
2022-11-21T03:20:00.384Z,27.1
2022-11-21T03:25:00.349Z,42.0
2022-11-21T03:30:00.379Z,15.4
2022-11-21T03:35:00.425Z,31.7
2022-11-21T03:40:00.406Z,36.6
2022-11-21T03:45:00.383Z,28.3
2022-11-21T03:50:00.403Z,40.3
2022-11-21T03:55:00.360Z,29.1
2022-11-21T04:00:00.444Z,31.4
2022-11-21T04:05:00.331Z,13.7
2022-11-21T04:10:00.448Z,22.7
2022-11-21T04:15:00.446Z,26.8
2022-11-21T04:20:00.403Z,3.0
2022-11-21T04:25:00.391Z,22.0
2022-11-21T04:30:00.422Z,22.5
2022-11-21T04:35:00.380Z,22.5
2022-11-21T04:40:00.388Z,22.5
2022-11-21T04:45:00.468Z,22.5
2022-11-21T04:50:00.424Z,22.5
2022-11-21T04:55:00.366Z,22.5
2022-11-21T05:00:00.540Z,153.7
2022-11-21T05:05:00.406Z,157.5
2022-11-21T05:10:00.388Z,292.9
2022-11-21T05:15:00.440Z,292.5
2022-11-21T05:20:00.430Z,292.5
2022-11-21T05:25:00.355Z,292.5
2022-11-21T05:30:00.472Z,292.5
2022-11-21T05:35:00.364Z,292.5
2022-11-21T05:40:00.465Z,292.5
2022-11-21T05:45:00.418Z,320.1
2022-11-21T05:50:00.374Z,316.4
2022-11-21T05:55:00.691Z,293.1
2022-11-21T06:00:00.470Z,292.5
2022-11-21T06:05:00.356Z,292.5
2022-11-21T06:10:00.368Z,292.5
2022-11-21T06:15:00.343Z,216.3
2022-11-21T06:20:00.373Z,260.7
2022-11-21T06:25:00.331Z,269.9
2022-11-21T06:30:00.554Z,274.3
2022-11-21T06:35:00.329Z,311.2
2022-11-21T06:40:00.403Z,293.3
2022-11-21T06:45:00.372Z,282.3
2022-11-21T06:50:00.379Z,284.2
2022-11-21T06:55:00.357Z,304.2
2022-11-21T07:00:00.385Z,304.1
2022-11-21T07:05:00.358Z,291.8
2022-11-21T07:10:00.363Z,296.8
2022-11-21T07:15:00.329Z,324.7
2022-11-21T07:20:00.408Z,295.5
2022-11-21T07:25:00.403Z,271.7
2022-11-21T07:30:00.377Z,306.3
2022-11-21T07:35:00.370Z,307.7
2022-11-21T07:40:00.444Z,248.7
2022-11-21T07:45:00.391Z,248.2
2022-11-21T07:50:00.372Z,228.9
2022-11-21T07:55:00.362Z,264.7
2022-11-21T08:00:00.435Z,273.3
2022-11-21T08:05:00.397Z,280.2
2022-11-21T08:10:00.467Z,286.8
2022-11-21T08:15:00.386Z,260.3
2022-11-21T08:20:00.483Z,242.1
2022-11-21T08:25:00.391Z,256.2
2022-11-21T08:30:00.433Z,299.5
2022-11-21T08:35:00.381Z,244.8
2022-11-21T08:40:00.440Z,257.5
2022-11-21T08:45:00.393Z,270.8
2022-11-21T08:50:09.487Z,296.8
2022-11-21T08:55:00.385Z,265.3
2022-11-21T09:00:00.463Z,267.1
2022-11-21T09:05:00.458Z,260.9
2022-11-21T09:10:00.453Z,233.5
2022-11-21T09:15:00.510Z,241.0
2022-11-21T09:20:00.776Z,300.0
2022-11-21T09:25:00.356Z,271.7
2022-11-21T09:30:00.465Z,239.9
2022-11-21T09:45:00.410Z,239.7
2022-11-21T09:50:00.439Z,229.9
2022-11-21T09:55:00.355Z,212.2
2022-11-21T10:00:00.488Z,237.6
2022-11-21T10:05:00.398Z,262.6
2022-11-21T10:10:00.544Z,250.3
2022-11-21T10:15:00.694Z,200.8
2022-11-21T10:20:00.503Z,208.7
2022-11-21T10:25:00.424Z,194.2
2022-11-21T10:30:00.474Z,216.8
2022-11-21T10:35:00.458Z,199.4
2022-11-21T10:40:00.494Z,204.9
2022-11-21T10:45:00.516Z,192.9
2022-11-21T10:50:00.496Z,198.6
2022-11-21T10:55:00.420Z,203.6
2022-11-21T11:00:00.516Z,203.2
2022-11-21T11:05:00.469Z,204.6
2022-11-21T11:10:00.495Z,172.7
2022-11-21T11:15:00.427Z,196.3
2022-11-21T11:20:00.445Z,209.2
2022-11-21T11:25:01.497Z,219.0
2022-11-21T11:30:00.532Z,201.7
2022-11-21T11:35:00.636Z,224.5
2022-11-21T11:40:00.507Z,221.5
2022-11-21T11:45:00.395Z,207.6
2022-11-21T11:50:00.483Z,236.3
2022-11-21T11:55:00.445Z,244.6
2022-11-21T12:00:00.387Z,251.3
2022-11-21T12:05:00.404Z,253.3
2022-11-21T12:10:00.414Z,264.5
2022-11-21T12:15:00.444Z,251.4
2022-11-21T12:20:00.390Z,235.2
2022-11-21T12:25:00.458Z,244.2
2022-11-21T12:30:00.466Z,209.3
2022-11-21T12:35:00.375Z,192.2
2022-11-21T12:40:00.400Z,195.1
2022-11-21T12:45:00.437Z,202.7
2022-11-21T12:50:00.400Z,192.0
2022-11-21T12:55:00.479Z,203.8
2022-11-21T13:00:00.406Z,190.7
2022-11-21T13:05:00.399Z,196.1
2022-11-21T13:10:00.628Z,166.1
2022-11-21T13:15:00.381Z,197.5
2022-11-21T13:20:00.373Z,188.2
2022-11-21T13:25:00.427Z,210.4
2022-11-21T13:30:00.369Z,200.3
2022-11-21T13:35:00.417Z,206.2
2022-11-21T13:40:00.382Z,189.6
2022-11-21T13:45:00.399Z,166.6
2022-11-21T13:50:00.386Z,195.0
2022-11-21T13:55:00.382Z,209.3
2022-11-21T14:00:00.571Z,168.0
2022-11-21T14:05:00.370Z,177.3
2022-11-21T14:10:00.479Z,157.6
2022-11-21T14:15:00.402Z,141.3
2022-11-21T14:20:00.384Z,113.8
2022-11-21T14:25:00.381Z,106.7
2022-11-21T14:30:00.405Z,149.6
2022-11-21T14:35:00.422Z,137.2
2022-11-21T14:40:00.301Z,113.4
2022-11-21T14:45:00.387Z,157.9
2022-11-21T14:50:07.841Z,153.5
2022-11-21T14:55:31.393Z,167.8
2022-11-21T15:00:00.386Z,168.5
2022-11-21T15:05:00.463Z,146.8
2022-11-21T15:10:30.910Z,176.3
2022-11-21T15:15:00.368Z,176.6
2022-11-21T15:20:00.418Z,195.5
2022-11-21T15:25:00.382Z,164.4
2022-11-21T15:30:00.420Z,139.9
2022-11-21T15:35:00.366Z,168.7
2022-11-21T15:40:00.450Z,152.9
2022-11-21T15:45:00.526Z,146.5
2022-11-21T15:50:00.495Z,142.4
2022-11-21T15:55:00.456Z,160.5
2022-11-21T16:00:00.700Z,159.6
2022-11-21T16:05:00.599Z,161.1
2022-11-21T16:10:00.443Z,144.5
2022-11-21T16:15:00.441Z,133.4
2022-11-21T16:20:00.407Z,162.0
2022-11-21T16:25:00.373Z,162.5
2022-11-21T16:30:00.438Z,124.9
2022-11-21T16:35:00.414Z,150.3
2022-11-21T16:40:00.425Z,143.2
2022-11-21T16:45:00.390Z,167.0
2022-11-21T16:50:00.390Z,119.8
2022-11-21T16:55:00.370Z,94.2
2022-11-21T17:00:01.209Z,76.8
2022-11-21T17:05:00.354Z,105.4
2022-11-21T17:10:00.384Z,79.2
2022-11-21T17:15:00.395Z,79.8
2022-11-21T17:20:00.394Z,87.9
2022-11-21T17:25:00.356Z,79.6
2022-11-21T17:30:00.410Z,117.7
2022-11-21T17:35:00.385Z,67.7
2022-11-21T17:40:00.396Z,72.6
2022-11-21T17:45:00.417Z,79.4
2022-11-21T17:50:08.896Z,65.3
2022-11-21T17:55:00.343Z,95.9
2022-11-21T18:00:00.463Z,160.1
2022-11-21T18:05:00.373Z,134.2
2022-11-21T18:10:41.988Z,102.1
2022-11-21T18:15:00.368Z,100.2
2022-11-21T18:20:00.374Z,71.5
2022-11-21T18:25:00.366Z,93.9
2022-11-21T18:30:00.419Z,75.0
2022-11-21T18:35:00.362Z,75.8
2022-11-21T18:40:00.421Z,69.3
2022-11-21T18:45:00.831Z,81.8
2022-11-21T18:50:00.367Z,79.7
2022-11-21T18:55:00.391Z,67.7
2022-11-21T19:00:00.496Z,79.3
2022-11-21T19:05:00.455Z,72.0
2022-11-21T19:15:00.448Z,99.9
2022-11-21T19:20:00.454Z,79.4
2022-11-21T19:25:00.374Z,116.1
2022-11-21T19:30:00.430Z,103.6
2022-11-21T19:35:00.358Z,75.1
2022-11-21T19:40:00.395Z,100.7
2022-11-21T19:45:00.417Z,69.2
2022-11-21T19:50:00.394Z,67.5
2022-11-21T19:55:00.400Z,75.5
2022-11-21T20:00:00.473Z,67.9
2022-11-21T20:05:00.365Z,75.5
2022-11-21T20:10:00.432Z,67.2
2022-11-21T20:15:00.410Z,87.2
2022-11-21T20:20:00.386Z,75.5
2022-11-21T20:25:00.397Z,98.6
2022-11-21T20:30:00.449Z,75.1
2022-11-21T20:35:00.727Z,119.1
2022-11-21T20:40:00.629Z,137.2
2022-11-21T20:50:00.419Z,100.2
2022-11-21T20:55:00.418Z,106.0
2022-11-21T21:00:00.504Z,88.2
2022-11-21T21:05:00.401Z,71.5
2022-11-21T21:10:00.395Z,72.0
2022-11-21T21:15:00.372Z,68.0
2022-11-21T21:20:00.412Z,126.9
2022-11-21T21:25:00.354Z,127.7
2022-11-21T21:30:00.391Z,115.5
2022-11-21T21:35:00.390Z,157.3
2022-11-21T21:40:00.417Z,65.3
2022-11-21T21:45:00.352Z,81.3
2022-11-21T21:50:00.418Z,109.5
2022-11-21T21:55:00.382Z,69.0
2022-11-21T22:00:00.506Z,71.5
2022-11-21T22:05:00.406Z,71.9
2022-11-21T22:10:00.428Z,67.1
2022-11-21T22:15:00.364Z,103.3
2022-11-21T22:20:00.436Z,79.7
2022-11-21T22:25:00.355Z,80.6
2022-11-21T22:30:00.391Z,84.9
2022-11-21T22:35:00.392Z,85.3
2022-11-21T22:40:00.457Z,111.6
2022-11-21T22:45:00.333Z,115.3
2022-11-21T22:50:00.385Z,87.2
2022-11-21T22:55:00.396Z,73.9
2022-11-21T23:00:00.548Z,90.3
2022-11-21T23:05:00.353Z,113.6
2022-11-21T23:10:00.401Z,94.6
2022-11-21T23:15:00.434Z,72.4
2022-11-21T23:20:00.518Z,142.5
2022-11-21T23:25:00.383Z,112.0
2022-11-21T23:30:00.479Z,134.2
2022-11-21T23:35:00.389Z,116.8
2022-11-21T23:40:00.378Z,133.0
2022-11-21T23:45:00.380Z,83.5
2022-11-21T23:50:00.262Z,117.4
2022-11-21T23:55:00.352Z,97.0
